createdAt,value
2018-10-17T00:01:35.363Z,37.50
2018-10-17T00:04:05.071Z,37.77
2018-10-17T00:06:33.971Z,38.50
2018-10-17T00:09:03.115Z,37.47
2018-10-17T00:11:32.003Z,40.47
2018-10-17T00:14:00.820Z,40.00
2018-10-17T00:16:29.622Z,41.37
2018-10-17T00:18:58.479Z,39.30
2018-10-17T00:21:27.310Z,37.30
2018-10-17T00:23:56.180Z,38.50
2018-10-17T00:26:24.999Z,39.97
2018-10-17T00:28:53.823Z,39.17
2018-10-17T00:31:22.630Z,38.90
2018-10-17T00:33:51.446Z,39.50
2018-10-17T00:36:20.272Z,38.97
2018-10-17T00:38:49.099Z,40.07
2018-10-17T00:41:17.920Z,40.97
2018-10-17T00:43:46.844Z,42.23
2018-10-17T00:46:15.694Z,41.33
2018-10-17T00:48:44.489Z,41.20
2018-10-17T00:51:13.323Z,41.83
2018-10-17T00:53:42.227Z,39.63
2018-10-17T00:56:11.010Z,40.30
2018-10-17T00:58:39.846Z,42.57
2018-10-17T01:01:08.760Z,41.30
2018-10-17T01:03:37.595Z,38.20
2018-10-17T01:06:06.411Z,41.47
2018-10-17T01:08:35.260Z,39.60
2018-10-17T01:11:04.124Z,41.63
2018-10-17T01:13:32.934Z,43.63
2018-10-17T01:16:01.761Z,40.33
2018-10-17T01:18:30.558Z,42.27
2018-10-17T01:20:59.391Z,40.63
2018-10-17T01:23:28.215Z,42.10
2018-10-17T01:25:57.043Z,43.47
2018-10-17T01:28:25.890Z,40.07
2018-10-17T01:30:54.730Z,37.13
2018-10-17T01:33:23.548Z,39.63
2018-10-17T01:35:52.359Z,39.80
2018-10-17T01:38:21.160Z,38.33
2018-10-17T01:40:49.983Z,40.47
2018-10-17T01:43:18.894Z,39.10
2018-10-17T01:45:47.707Z,39.97
2018-10-17T01:48:16.563Z,38.67
2018-10-17T01:50:45.379Z,40.23
2018-10-17T01:53:14.379Z,38.10
2018-10-17T01:55:43.151Z,39.23
2018-10-17T01:58:12.307Z,40.00
2018-10-17T02:00:41.122Z,38.73
2018-10-17T02:03:09.931Z,39.00
2018-10-17T02:05:38.815Z,37.80
2018-10-17T02:08:07.626Z,36.93
2018-10-17T02:10:36.483Z,39.17
2018-10-17T02:13:05.864Z,37.80
2018-10-17T02:15:34.743Z,37.97
2018-10-17T02:18:03.690Z,39.23
2018-10-17T02:20:32.549Z,38.20
2018-10-17T02:23:01.439Z,39.50
2018-10-17T02:25:30.230Z,39.70
2018-10-17T02:27:59.058Z,36.50
2018-10-17T02:30:27.856Z,39.50
2018-10-17T02:32:56.738Z,36.80
2018-10-17T02:35:25.547Z,37.93
2018-10-17T02:37:54.359Z,38.73
2018-10-17T02:40:23.172Z,39.87
2018-10-17T02:42:52.111Z,42.30
2018-10-17T02:45:20.924Z,38.83
2018-10-17T02:47:49.739Z,37.70
2018-10-17T02:50:18.627Z,37.30
2018-10-17T02:52:47.532Z,37.07
2018-10-17T02:55:16.372Z,37.97
2018-10-17T02:57:45.167Z,38.57
2018-10-17T03:00:14.985Z,38.67
2018-10-17T03:02:43.832Z,39.43
2018-10-17T03:05:12.726Z,38.40
2018-10-17T03:07:41.471Z,38.53
2018-10-17T03:10:10.282Z,36.03
2018-10-17T03:12:39.063Z,38.00
2018-10-17T03:15:08.383Z,37.23
2018-10-17T03:17:37.175Z,37.60
2018-10-17T03:20:08.014Z,36.83
2018-10-17T03:22:36.886Z,38.30
2018-10-17T03:25:07.160Z,37.03
2018-10-17T03:27:35.971Z,39.20
2018-10-17T03:30:04.928Z,36.50
2018-10-17T03:32:33.833Z,36.93
2018-10-17T03:35:02.666Z,33.87
2018-10-17T03:37:31.485Z,37.17
2018-10-17T03:40:00.311Z,35.93
2018-10-17T03:42:29.151Z,39.07
2018-10-17T03:44:58.081Z,36.33
2018-10-17T03:47:26.886Z,34.60
2018-10-17T03:49:55.725Z,33.57
2018-10-17T03:52:24.618Z,32.73
2018-10-17T03:55:05.621Z,30.87
2018-10-17T03:57:34.342Z,27.97
2018-10-17T04:00:03.214Z,24.77
2018-10-17T04:02:32.076Z,29.83
2018-10-17T04:05:00.945Z,30.83
2018-10-17T04:07:29.748Z,31.37
2018-10-17T04:09:58.603Z,33.43
2018-10-17T04:12:27.527Z,32.23
2018-10-17T04:14:56.316Z,32.27
2018-10-17T04:17:25.150Z,34.17
2018-10-17T04:19:53.984Z,36.40
2018-10-17T04:22:22.869Z,35.23
2018-10-17T04:24:51.757Z,37.00
2018-10-17T04:27:20.551Z,44.03
2018-10-17T04:29:49.407Z,40.97
2018-10-17T04:32:18.326Z,38.60
2018-10-17T04:34:47.143Z,38.00
2018-10-17T04:37:16.049Z,37.57
2018-10-17T04:39:44.802Z,36.93
2018-10-17T04:42:13.703Z,39.80
2018-10-17T04:44:42.570Z,39.07
2018-10-17T04:47:11.433Z,40.20
2018-10-17T04:49:40.233Z,39.20
2018-10-17T04:52:09.182Z,38.97
2018-10-17T04:54:38.007Z,39.67
2018-10-17T04:57:06.948Z,36.60
2018-10-17T04:59:35.773Z,40.87
2018-10-17T05:02:04.668Z,37.57
2018-10-17T05:04:33.530Z,37.47
2018-10-17T05:07:02.505Z,38.80
2018-10-17T05:09:31.313Z,39.43
2018-10-17T05:12:00.194Z,39.33
2018-10-17T05:14:29.451Z,37.20
2018-10-17T05:16:58.370Z,35.70
2018-10-17T05:19:27.413Z,38.40
2018-10-17T05:21:56.296Z,36.53
2018-10-17T05:24:25.135Z,35.30
2018-10-17T05:26:53.987Z,32.67
2018-10-17T05:29:25.782Z,34.13
2018-10-17T05:31:54.744Z,30.50
2018-10-17T05:34:23.566Z,33.13
2018-10-17T05:36:52.463Z,32.43
2018-10-17T05:39:21.265Z,30.97
2018-10-17T05:41:50.404Z,30.53
2018-10-17T05:44:19.484Z,28.17
2018-10-17T05:46:48.316Z,29.03
2018-10-17T05:49:17.171Z,29.43
2018-10-17T05:51:46.159Z,28.63
2018-10-17T05:54:15.127Z,29.47
2018-10-17T05:56:43.968Z,30.63
2018-10-17T05:59:15.669Z,29.40
2018-10-17T06:01:44.892Z,29.17
2018-10-17T06:04:13.564Z,28.50
2018-10-17T06:06:42.451Z,28.10
2018-10-17T06:09:11.979Z,29.50
2018-10-17T06:11:41.267Z,27.53
2018-10-17T06:14:15.710Z,27.73
2018-10-17T06:16:45.354Z,26.37
2018-10-17T06:19:14.377Z,27.47
2018-10-17T06:21:43.243Z,28.67
2018-10-17T06:24:12.060Z,26.23
2018-10-17T06:26:40.897Z,24.80
2018-10-17T06:29:09.838Z,27.20
2018-10-17T06:31:38.547Z,27.03
2018-10-17T06:34:07.474Z,25.80
2018-10-17T06:36:36.206Z,26.10
2018-10-17T06:39:09.274Z,25.17
2018-10-17T06:41:38.198Z,25.90
2018-10-17T06:44:07.477Z,24.83
2018-10-17T06:46:36.238Z,25.10
2018-10-17T06:49:05.211Z,26.17
2018-10-17T06:51:34.160Z,24.83
2018-10-17T06:54:03.127Z,23.77
2018-10-17T06:56:31.887Z,23.17
2018-10-17T06:59:00.776Z,22.17
2018-10-17T07:01:29.542Z,22.53
2018-10-17T07:03:58.383Z,21.97
2018-10-17T07:06:27.244Z,22.87
2018-10-17T07:08:56.051Z,22.07
2018-10-17T07:11:24.891Z,24.20
2018-10-17T07:13:53.743Z,20.17
2018-10-17T07:16:22.608Z,19.30
2018-10-17T07:18:51.430Z,21.23
2018-10-17T07:21:20.292Z,18.77
2018-10-17T07:23:49.196Z,21.60
2018-10-17T07:26:18.258Z,19.97
2018-10-17T07:28:47.090Z,18.40
2018-10-17T07:31:15.977Z,19.80
2018-10-17T07:33:44.787Z,19.40
2018-10-17T07:36:13.767Z,19.03
2018-10-17T07:38:42.463Z,21.20
2018-10-17T07:41:11.254Z,20.67
2018-10-17T07:43:40.121Z,19.00
2018-10-17T07:46:08.927Z,20.37
2018-10-17T07:48:37.764Z,30.00
2018-10-17T07:51:06.840Z,32.30
2018-10-17T07:53:35.865Z,31.70
2018-10-17T07:56:04.754Z,34.50
2018-10-17T07:58:33.609Z,36.13
2018-10-17T08:01:02.465Z,36.60
2018-10-17T08:03:31.368Z,35.23
2018-10-17T08:06:00.251Z,36.73
2018-10-17T08:08:29.074Z,34.27
2018-10-17T08:10:57.920Z,36.60
2018-10-17T08:13:26.798Z,36.20
2018-10-17T08:15:55.675Z,38.57
2018-10-17T08:18:24.501Z,39.73
2018-10-17T08:20:53.326Z,41.47
2018-10-17T08:23:22.192Z,40.77
2018-10-17T08:25:51.062Z,40.93
2018-10-17T08:28:19.903Z,38.70
2018-10-17T08:30:48.726Z,39.90
2018-10-17T08:33:17.653Z,41.50
2018-10-17T08:35:46.571Z,41.37
2018-10-17T08:38:15.335Z,42.83
2018-10-17T08:40:44.202Z,41.83
2018-10-17T08:43:13.079Z,39.80
2018-10-17T08:45:41.911Z,40.80
2018-10-17T08:48:10.747Z,39.57
2018-10-17T08:50:39.640Z,39.80
2018-10-17T08:53:08.571Z,41.67
2018-10-17T08:55:37.400Z,40.00
2018-10-17T08:58:06.211Z,38.07
2018-10-17T09:00:35.077Z,41.77
2018-10-17T09:03:04.178Z,39.10
2018-10-17T09:05:32.998Z,42.00
2018-10-17T09:08:02.308Z,36.10
2018-10-17T09:10:31.139Z,38.00
2018-10-17T09:12:59.989Z,39.70
2018-10-17T09:15:28.796Z,35.60
2018-10-17T09:17:57.643Z,38.20
2018-10-17T09:20:26.747Z,40.73
2018-10-17T09:22:55.439Z,43.63
2018-10-17T09:25:24.302Z,36.57
2018-10-17T09:27:53.158Z,37.43
2018-10-17T09:30:22.108Z,38.20
2018-10-17T09:32:50.901Z,37.33
2018-10-17T09:35:19.805Z,38.07
2018-10-17T09:37:48.583Z,34.60
2018-10-17T09:40:17.540Z,36.03
2018-10-17T09:42:46.283Z,37.43
2018-10-17T09:45:15.123Z,36.97
2018-10-17T09:47:43.959Z,37.57
2018-10-17T09:50:12.826Z,36.67
2018-10-17T09:52:41.772Z,34.87
2018-10-17T09:55:10.635Z,39.00
2018-10-17T09:57:39.558Z,36.17
2018-10-17T10:00:23.392Z,35.43
2018-10-17T10:02:55.403Z,37.30
2018-10-17T10:05:24.243Z,37.80
2018-10-17T10:07:53.138Z,33.97
2018-10-17T10:10:21.972Z,35.87
2018-10-17T10:12:50.896Z,35.93
2018-10-17T10:15:19.738Z,40.17
2018-10-17T10:17:48.570Z,39.47
2018-10-17T10:20:17.387Z,35.67
2018-10-17T10:22:46.372Z,38.90
2018-10-17T10:25:15.228Z,35.77
2018-10-17T10:27:44.163Z,35.17
2018-10-17T10:30:13.064Z,34.87
2018-10-17T10:32:41.891Z,33.37
2018-10-17T10:35:10.727Z,36.50
2018-10-17T10:37:39.570Z,35.93
2018-10-17T10:40:08.494Z,34.80
2018-10-17T10:42:37.374Z,34.87
2018-10-17T10:45:06.821Z,37.57
2018-10-17T10:47:35.683Z,35.70
2018-10-17T10:50:06.650Z,37.60
2018-10-17T10:52:35.472Z,33.43
2018-10-17T10:55:04.857Z,33.50
2018-10-17T10:57:33.723Z,35.87
2018-10-17T11:00:02.636Z,36.50
2018-10-17T11:02:31.579Z,36.90
2018-10-17T11:05:00.459Z,35.03
2018-10-17T11:07:29.258Z,34.87
2018-10-17T11:09:58.100Z,36.60
2018-10-17T11:12:27.023Z,35.97
2018-10-17T11:14:55.994Z,37.00
2018-10-17T11:17:24.758Z,34.90
2018-10-17T11:19:53.570Z,36.17
2018-10-17T11:22:22.739Z,36.33
2018-10-17T11:24:51.552Z,34.00
2018-10-17T11:27:20.469Z,33.60
2018-10-17T11:29:49.302Z,34.70
2018-10-17T11:32:18.237Z,34.10
2018-10-17T11:34:47.074Z,35.17
2018-10-17T11:37:15.939Z,34.70
2018-10-17T11:39:44.891Z,34.60
2018-10-17T11:42:13.831Z,35.87
2018-10-17T11:44:42.727Z,35.40
2018-10-17T11:47:11.795Z,33.70
2018-10-17T11:49:40.594Z,35.97
2018-10-17T11:52:09.483Z,32.90
2018-10-17T11:54:38.331Z,34.90
2018-10-17T11:57:07.229Z,34.40
2018-10-17T11:59:36.021Z,35.80
2018-10-17T12:02:05.222Z,33.23
2018-10-17T12:04:34.196Z,34.70
2018-10-17T12:07:03.063Z,35.23
2018-10-17T12:09:31.911Z,33.60
2018-10-17T12:12:00.913Z,32.70
2018-10-17T12:14:29.654Z,31.90
2018-10-17T12:16:58.487Z,34.77
2018-10-17T12:19:27.351Z,33.20
2018-10-17T12:21:56.287Z,33.23
2018-10-17T12:24:25.225Z,36.53
2018-10-17T12:26:54.173Z,33.73
2018-10-17T12:29:22.975Z,32.40
2018-10-17T12:31:51.851Z,33.37
2018-10-17T12:34:20.667Z,34.03
2018-10-17T12:36:49.493Z,36.30
2018-10-17T12:39:18.361Z,34.27
2018-10-17T12:41:47.187Z,30.10
2018-10-17T12:44:16.083Z,35.10
2018-10-17T12:46:44.962Z,31.63
2018-10-17T12:49:13.862Z,29.57
2018-10-17T12:51:42.668Z,32.73
2018-10-17T12:54:11.502Z,32.10
2018-10-17T12:56:40.320Z,31.47
2018-10-17T12:59:13.252Z,34.20
2018-10-17T13:01:42.088Z,34.33
2018-10-17T13:04:10.906Z,34.33
2018-10-17T13:06:39.851Z,34.83
2018-10-17T13:09:10.462Z,31.37
2018-10-17T13:11:39.329Z,33.90
2018-10-17T13:14:08.736Z,33.70
2018-10-17T13:16:37.571Z,37.33
2018-10-17T13:19:06.497Z,34.30
2018-10-17T13:21:35.314Z,33.60
2018-10-17T13:24:04.730Z,34.47
2018-10-17T13:26:33.542Z,31.30
2018-10-17T13:29:02.456Z,34.10
2018-10-17T13:31:31.300Z,39.90
2018-10-17T13:34:00.108Z,41.27
2018-10-17T13:36:29.066Z,35.97
2018-10-17T13:38:57.884Z,38.47
2018-10-17T13:41:26.707Z,37.30
2018-10-17T13:43:55.620Z,34.67
2018-10-17T13:46:24.437Z,34.23
2018-10-17T13:48:53.293Z,33.27
2018-10-17T13:51:22.123Z,36.70
2018-10-17T13:53:50.962Z,34.77
2018-10-17T13:56:19.770Z,33.53
2018-10-17T13:58:48.591Z,33.50
2018-10-17T14:01:17.432Z,38.13
2018-10-17T14:03:46.295Z,37.00
2018-10-17T14:06:15.249Z,36.07
2018-10-17T14:08:44.024Z,35.57
2018-10-17T14:11:12.863Z,37.20
2018-10-17T14:13:41.783Z,37.67
2018-10-17T14:16:10.643Z,34.73
2018-10-17T14:18:39.459Z,35.00
2018-10-17T14:21:08.416Z,35.27
2018-10-17T14:23:37.291Z,36.53
2018-10-17T14:26:06.139Z,37.33
2018-10-17T14:28:34.958Z,36.20
2018-10-17T14:31:03.780Z,33.07
2018-10-17T14:33:32.847Z,34.30
2018-10-17T14:36:01.758Z,36.83
2018-10-17T14:38:30.547Z,37.23
2018-10-17T14:40:59.434Z,33.63
2018-10-17T14:43:28.354Z,34.90
2018-10-17T14:45:57.180Z,34.93
2018-10-17T14:48:26.114Z,37.47
2018-10-17T14:50:54.927Z,36.07
2018-10-17T14:53:23.819Z,39.07
2018-10-17T14:55:52.711Z,36.30
2018-10-17T14:58:21.483Z,34.00
2018-10-17T15:00:50.934Z,38.10
2018-10-17T15:03:19.843Z,37.57
2018-10-17T15:05:48.708Z,35.50
2018-10-17T15:08:17.560Z,35.77
2018-10-17T15:10:46.536Z,34.03
2018-10-17T15:13:15.228Z,33.70
2018-10-17T15:15:45.095Z,34.13
2018-10-17T15:18:15.009Z,33.13
2018-10-17T15:20:43.991Z,33.00
2018-10-17T15:23:13.394Z,35.57
2018-10-17T15:25:42.247Z,34.13
2018-10-17T15:28:11.136Z,35.30
2018-10-17T15:30:39.943Z,34.43
2018-10-17T15:33:08.864Z,32.03
2018-10-17T15:35:37.707Z,33.60
2018-10-17T15:38:06.559Z,32.20
2018-10-17T15:40:35.399Z,33.70
2018-10-17T15:43:04.403Z,34.33
2018-10-17T15:45:33.216Z,33.57
2018-10-17T15:48:02.067Z,34.70
2018-10-17T15:50:30.939Z,33.70
2018-10-17T15:52:59.893Z,37.50
2018-10-17T15:55:28.719Z,35.47
2018-10-17T15:57:57.943Z,36.90
2018-10-17T16:00:30.740Z,37.53
2018-10-17T16:02:59.672Z,36.40
2018-10-17T16:05:28.536Z,35.60
2018-10-17T16:07:57.458Z,32.60
2018-10-17T16:10:26.896Z,34.93
2018-10-17T16:12:55.787Z,36.97
2018-10-17T16:15:24.649Z,38.63
2018-10-17T16:17:54.423Z,45.23
2018-10-17T16:20:23.451Z,46.13
2018-10-17T16:22:52.540Z,43.17
2018-10-17T16:25:21.355Z,44.10
2018-10-17T16:27:50.227Z,38.70
2018-10-17T16:30:19.240Z,39.40
2018-10-17T16:32:48.067Z,40.50
2018-10-17T16:35:16.918Z,40.03
2018-10-17T16:37:45.771Z,37.33
2018-10-17T16:40:14.647Z,38.10
2018-10-17T16:42:43.555Z,38.63
2018-10-17T16:45:12.463Z,37.73
2018-10-17T16:47:41.400Z,36.70
2018-10-17T16:50:10.299Z,37.10
2018-10-17T16:52:39.195Z,38.10
2018-10-17T16:55:08.894Z,37.60
2018-10-17T16:57:37.934Z,38.20
2018-10-17T17:00:10.395Z,38.80
2018-10-17T17:02:41.018Z,37.33
2018-10-17T17:05:12.499Z,38.10
2018-10-17T17:07:41.439Z,38.30
2018-10-17T17:10:11.495Z,39.17
2018-10-17T17:12:40.438Z,40.27
2018-10-17T17:15:09.702Z,42.60
2018-10-17T17:17:38.565Z,39.90
2018-10-17T17:20:09.455Z,43.57
2018-10-17T17:22:38.854Z,41.20
2018-10-17T17:25:07.912Z,41.37
2018-10-17T17:27:36.952Z,37.97
2018-10-17T17:30:12.804Z,41.10
2018-10-17T17:32:41.703Z,40.33
2018-10-17T17:35:10.610Z,40.90
2018-10-17T17:37:39.695Z,39.47
2018-10-17T17:40:11.009Z,38.70
2018-10-17T17:42:40.051Z,37.87
2018-10-17T17:45:09.765Z,39.63
2018-10-17T17:47:39.074Z,39.80
2018-10-17T17:50:08.593Z,38.20
2018-10-17T17:52:37.495Z,40.37
2018-10-17T17:55:07.797Z,43.90
2018-10-17T17:57:36.747Z,39.77
2018-10-17T18:00:07.768Z,41.20
2018-10-17T18:02:37.425Z,38.23
2018-10-17T18:05:07.435Z,39.40
2018-10-17T18:07:36.454Z,38.27
2018-10-17T18:10:06.747Z,38.50
2018-10-17T18:12:35.936Z,38.13
2018-10-17T18:15:05.779Z,39.10
2018-10-17T18:17:35.894Z,38.90
2018-10-17T18:20:05.588Z,39.57
2018-10-17T18:22:34.832Z,39.20
2018-10-17T18:25:03.994Z,42.17
2018-10-17T18:27:33.166Z,41.37
2018-10-17T18:30:02.680Z,43.03
2018-10-17T18:32:31.595Z,42.53
2018-10-17T18:35:00.548Z,43.40
2018-10-17T18:37:29.399Z,43.70
2018-10-17T18:39:59.244Z,41.80
2018-10-17T18:42:28.568Z,46.37
2018-10-17T18:44:58.676Z,41.90
2018-10-17T18:47:27.914Z,44.80
2018-10-17T18:49:56.844Z,41.47
2018-10-17T18:52:25.812Z,43.50
2018-10-17T18:54:54.894Z,42.53
2018-10-17T18:57:24.036Z,45.40
2018-10-17T18:59:53.774Z,42.73
2018-10-17T19:02:22.686Z,42.20
2018-10-17T19:04:51.639Z,43.53
2018-10-17T19:07:21.596Z,44.73
2018-10-17T19:09:50.415Z,41.23
2018-10-17T19:12:20.151Z,44.57
2018-10-17T19:14:49.576Z,42.97
2018-10-17T19:17:19.375Z,48.00
2018-10-17T19:19:48.685Z,44.40
2018-10-17T19:22:17.980Z,42.27
2018-10-17T19:24:46.907Z,46.13
2018-10-17T19:27:15.782Z,45.07
2018-10-17T19:29:44.592Z,43.17
2018-10-17T19:32:13.488Z,43.40
2018-10-17T19:34:42.323Z,43.07
2018-10-17T19:37:11.134Z,42.20
2018-10-17T19:39:40.152Z,43.63
2018-10-17T19:42:09.027Z,41.67
2018-10-17T19:44:37.912Z,43.70
2018-10-17T19:47:06.768Z,43.47
2018-10-17T19:49:35.760Z,42.30
2018-10-17T19:52:04.596Z,39.77
2018-10-17T19:54:33.541Z,41.37
2018-10-17T19:57:02.433Z,42.67
2018-10-17T19:59:31.226Z,43.33
2018-10-17T20:02:00.167Z,41.67
2018-10-17T20:04:29.013Z,43.40
2018-10-17T20:06:58.172Z,41.60
2018-10-17T20:09:27.333Z,41.87
2018-10-17T20:11:56.206Z,40.90
2018-10-17T20:14:25.188Z,43.80
2018-10-17T20:16:53.959Z,42.33
2018-10-17T20:19:22.783Z,41.73
2018-10-17T20:21:51.660Z,41.37
2018-10-17T20:24:21.006Z,41.30
2018-10-17T20:26:50.352Z,38.90
2018-10-17T20:29:19.680Z,40.00
2018-10-17T20:31:48.567Z,40.10
2018-10-17T20:34:17.439Z,40.60
2018-10-17T20:36:46.256Z,39.80
2018-10-17T20:39:15.131Z,40.37
2018-10-17T20:41:45.044Z,37.80
2018-10-17T20:44:13.990Z,35.13
2018-10-17T20:46:42.731Z,35.30
2018-10-17T20:49:11.547Z,31.87
2018-10-17T20:51:40.390Z,36.00
2018-10-17T20:54:09.203Z,34.50
2018-10-17T20:56:37.987Z,35.77
2018-10-17T20:59:09.928Z,36.97
2018-10-17T21:01:39.096Z,35.23
2018-10-17T21:04:07.935Z,35.10
2018-10-17T21:06:37.124Z,37.37
2018-10-17T21:09:10.142Z,38.47
2018-10-17T21:11:39.094Z,36.63
2018-10-17T21:14:08.064Z,36.57
2018-10-17T21:16:36.887Z,36.87
2018-10-17T21:19:06.533Z,34.20
2018-10-17T21:21:35.712Z,39.30
2018-10-17T21:24:04.835Z,37.57
2018-10-17T21:26:33.798Z,40.97
2018-10-17T21:29:02.652Z,40.40
2018-10-17T21:31:31.676Z,46.40
2018-10-17T21:34:00.546Z,42.67
2018-10-17T21:36:29.361Z,41.47
2018-10-17T21:38:58.161Z,43.70
2018-10-17T21:41:26.970Z,43.80
2018-10-17T21:43:55.844Z,42.13
2018-10-17T21:46:24.635Z,44.60
2018-10-17T21:48:53.408Z,46.30
2018-10-17T21:51:22.343Z,45.37
2018-10-17T21:53:51.235Z,47.23
2018-10-17T21:56:20.146Z,44.23
2018-10-17T21:58:49.060Z,45.47
2018-10-17T22:01:17.875Z,44.67
2018-10-17T22:03:46.810Z,44.70
2018-10-17T22:06:15.660Z,41.20
2018-10-17T22:08:44.474Z,43.40
2018-10-17T22:11:13.291Z,40.10
2018-10-17T22:13:42.179Z,42.97
2018-10-17T22:16:10.976Z,41.53
2018-10-17T22:18:39.932Z,42.40
2018-10-17T22:21:08.726Z,41.13
2018-10-17T22:23:37.560Z,41.10
2018-10-17T22:26:06.500Z,39.10
2018-10-17T22:28:35.291Z,39.90
2018-10-17T22:31:04.320Z,36.57
2018-10-17T22:33:33.223Z,39.40
2018-10-17T22:36:02.078Z,37.73
2018-10-17T22:38:30.856Z,37.53
2018-10-17T22:40:59.676Z,38.07
2018-10-17T22:43:28.592Z,34.57
2018-10-17T22:45:57.426Z,31.80
2018-10-17T22:48:26.263Z,35.97
2018-10-17T22:50:55.073Z,29.80
2018-10-17T22:53:23.899Z,28.60
2018-10-17T22:55:52.671Z,30.20
2018-10-17T22:58:21.454Z,30.10
2018-10-17T23:00:50.318Z,31.10
2018-10-17T23:03:19.155Z,28.53
2018-10-17T23:05:47.950Z,32.00
2018-10-17T23:08:17.332Z,32.50
2018-10-17T23:10:46.159Z,30.37
2018-10-17T23:13:15.064Z,29.97
2018-10-17T23:15:43.866Z,30.73
2018-10-17T23:18:12.699Z,29.50
2018-10-17T23:20:41.493Z,29.67
2018-10-17T23:23:10.406Z,28.87
2018-10-17T23:25:39.228Z,32.80
2018-10-17T23:28:08.069Z,32.10
2018-10-17T23:30:36.876Z,31.73
2018-10-17T23:33:05.772Z,30.80
2018-10-17T23:35:34.610Z,36.97
2018-10-17T23:38:03.532Z,33.50
2018-10-17T23:40:32.334Z,33.50
2018-10-17T23:43:01.606Z,31.43
2018-10-17T23:45:30.454Z,30.90
2018-10-17T23:47:59.342Z,29.97
2018-10-17T23:50:28.143Z,32.77
2018-10-17T23:52:57.090Z,31.97
2018-10-17T23:55:25.926Z,32.97
2018-10-17T23:57:54.766Z,34.90
